createdAt,value
2022-10-04T00:01:25.903Z,7.80
2022-10-04T00:04:09.859Z,7.80
2022-10-04T00:06:44.306Z,7.80
2022-10-04T00:09:19.315Z,7.80
2022-10-04T00:11:48.084Z,7.80
2022-10-04T00:14:27.769Z,7.70
2022-10-04T00:16:55.969Z,7.70
2022-10-04T00:19:26.683Z,7.70
2022-10-04T00:21:56.615Z,7.70
2022-10-04T00:24:34.913Z,7.70
2022-10-04T00:27:27.059Z,7.70
2022-10-04T00:30:02.599Z,7.70
2022-10-04T00:32:46.763Z,7.60
2022-10-04T00:35:25.658Z,7.60
2022-10-04T00:38:09.175Z,7.60
2022-10-04T00:40:46.468Z,7.60
2022-10-04T00:43:57.722Z,7.60
2022-10-04T00:46:26.076Z,7.50
2022-10-04T00:49:03.486Z,7.50
2022-10-04T00:51:33.095Z,7.40
2022-10-04T00:54:09.243Z,7.40
2022-10-04T00:56:52.482Z,7.50
2022-10-04T00:59:37.186Z,7.40
2022-10-04T01:02:26.230Z,7.30
2022-10-04T01:05:07.780Z,7.30
2022-10-04T01:07:41.937Z,7.20
2022-10-04T01:10:13.527Z,7.20
2022-10-04T01:12:53.407Z,7.30
2022-10-04T01:15:35.279Z,7.30
2022-10-04T01:18:19.147Z,7.20
2022-10-04T01:20:57.648Z,7.20
2022-10-04T01:23:33.398Z,7.20
2022-10-04T01:26:00.239Z,7.30
2022-10-04T01:28:27.344Z,7.20
2022-10-04T01:30:54.882Z,7.30
2022-10-04T01:33:21.660Z,7.20
2022-10-04T01:35:48.340Z,7.20
2022-10-04T01:38:15.063Z,7.10
2022-10-04T01:40:54.845Z,7.10
2022-10-04T01:43:29.642Z,7.10
2022-10-04T01:46:09.743Z,7.10
2022-10-04T01:48:38.826Z,7.10
2022-10-04T01:51:09.094Z,7.00
2022-10-04T01:53:46.655Z,7.10
2022-10-04T01:56:21.860Z,7.10
2022-10-04T01:59:02.934Z,7.10
2022-10-04T02:01:45.751Z,7.10
2022-10-04T02:04:18.549Z,7.10
2022-10-04T02:06:54.133Z,7.00
2022-10-04T02:09:35.301Z,7.00
2022-10-04T02:12:02.420Z,7.00
2022-10-04T02:14:33.210Z,7.00
2022-10-04T02:17:03.137Z,7.00
2022-10-04T02:19:36.059Z,7.00
2022-10-04T02:22:05.422Z,7.00
2022-10-04T02:24:35.324Z,7.00
2022-10-04T02:27:02.259Z,7.00
2022-10-04T02:29:28.940Z,7.00
2022-10-04T02:32:14.704Z,6.90
2022-10-04T02:34:41.708Z,6.90
2022-10-04T02:37:09.039Z,6.90
2022-10-04T02:39:49.749Z,6.90
2022-10-04T02:42:41.039Z,6.90
2022-10-04T02:45:19.415Z,6.90
2022-10-04T02:47:51.825Z,6.90
2022-10-04T02:50:26.288Z,6.80
2022-10-04T02:53:02.256Z,6.80
2022-10-04T02:55:31.202Z,6.80
2022-10-04T02:57:59.281Z,6.80
2022-10-04T03:00:31.997Z,6.80
2022-10-04T03:03:30.532Z,6.80
2022-10-04T03:06:03.124Z,6.80
2022-10-04T03:08:34.411Z,6.80
2022-10-04T03:11:04.758Z,6.70
2022-10-04T03:13:31.785Z,6.80
2022-10-04T03:15:58.705Z,6.80
2022-10-04T03:18:25.604Z,6.80
2022-10-04T03:20:52.421Z,6.80
2022-10-04T03:23:20.982Z,6.80
2022-10-04T03:26:00.126Z,6.80
2022-10-04T03:28:28.764Z,6.80
2022-10-04T03:30:58.035Z,6.90
2022-10-04T03:33:26.954Z,6.90
2022-10-04T03:35:56.642Z,6.90
2022-10-04T03:38:25.397Z,6.90
2022-10-04T03:41:00.859Z,6.90
2022-10-04T03:43:34.193Z,6.90
2022-10-04T03:46:01.991Z,7.00
2022-10-04T03:48:35.750Z,7.00
2022-10-04T03:51:06.424Z,7.00
2022-10-04T03:53:44.492Z,7.00
2022-10-04T03:56:21.811Z,7.10
2022-10-04T03:58:50.336Z,7.10
2022-10-04T04:01:49.195Z,7.10
2022-10-04T04:04:31.150Z,7.20
2022-10-04T04:07:03.133Z,7.30
2022-10-04T04:10:05.422Z,7.30
2022-10-04T04:12:39.664Z,7.40
2022-10-04T04:15:11.584Z,7.50
2022-10-04T04:17:41.713Z,7.50
2022-10-04T04:20:30.265Z,7.50
2022-10-04T04:23:10.970Z,7.60
2022-10-04T04:25:42.003Z,7.70
2022-10-04T04:28:26.399Z,7.70
2022-10-04T04:31:02.556Z,7.70
2022-10-04T04:33:56.378Z,7.80
2022-10-04T04:36:23.042Z,7.80
2022-10-04T04:39:08.481Z,7.90
2022-10-04T04:41:35.537Z,7.90
2022-10-04T04:44:03.232Z,7.90
2022-10-04T04:46:31.274Z,8.00
2022-10-04T04:49:03.091Z,8.00
2022-10-04T04:51:31.867Z,8.00
2022-10-04T04:54:01.975Z,8.00
2022-10-04T04:56:30.567Z,8.10
2022-10-04T04:59:02.177Z,8.10
2022-10-04T05:01:45.546Z,8.10
2022-10-04T05:04:12.461Z,8.10
2022-10-04T05:07:00.958Z,8.20
2022-10-04T05:09:36.091Z,8.20
2022-10-04T05:12:09.846Z,8.30
2022-10-04T05:14:48.356Z,8.30
2022-10-04T05:17:30.119Z,8.30
2022-10-04T05:19:59.838Z,8.40
2022-10-04T05:22:28.587Z,8.40
2022-10-04T05:25:00.649Z,8.30
2022-10-04T05:27:39.733Z,8.50
2022-10-04T05:30:28.250Z,8.50
2022-10-04T05:33:01.937Z,8.50
2022-10-04T05:35:29.770Z,8.50
2022-10-04T05:38:24.514Z,8.50
2022-10-04T05:41:20.110Z,8.60
2022-10-04T05:43:51.317Z,8.60
2022-10-04T05:46:18.817Z,8.60
2022-10-04T05:48:48.211Z,8.60
2022-10-04T05:51:30.776Z,8.70
2022-10-04T05:54:00.118Z,8.70
2022-10-04T05:57:15.763Z,8.70
2022-10-04T06:00:03.241Z,8.80
2022-10-04T06:02:59.139Z,8.80
2022-10-04T06:05:40.504Z,8.80
2022-10-04T06:08:44.790Z,8.90
2022-10-04T06:11:30.120Z,8.90
2022-10-04T06:14:11.569Z,9.00
2022-10-04T06:17:03.091Z,9.00
2022-10-04T06:20:04.096Z,9.00
2022-10-04T06:22:32.699Z,9.10
2022-10-04T06:25:23.198Z,9.10
2022-10-04T06:28:04.647Z,9.20
2022-10-04T06:31:02.362Z,9.20
2022-10-04T06:34:05.856Z,9.30
2022-10-04T06:36:54.441Z,9.40
2022-10-04T06:39:36.148Z,9.50
2022-10-04T06:42:40.620Z,9.50
2022-10-04T06:45:11.513Z,9.60
2022-10-04T06:48:02.659Z,9.60
2022-10-04T06:50:57.559Z,9.70
2022-10-04T06:53:32.986Z,9.80
2022-10-04T06:56:05.459Z,9.90
2022-10-04T06:58:49.109Z,9.90
2022-10-04T07:01:28.114Z,10.00
2022-10-04T07:03:54.749Z,10.10
2022-10-04T07:06:29.148Z,10.20
2022-10-04T07:09:02.804Z,10.20
2022-10-04T07:11:37.810Z,10.30
2022-10-04T07:14:19.878Z,10.30
2022-10-04T07:17:01.843Z,10.40
2022-10-04T07:19:31.223Z,10.60
2022-10-04T07:22:06.640Z,10.80
2022-10-04T07:24:49.307Z,10.90
2022-10-04T07:27:29.614Z,11.20
2022-10-04T07:30:03.867Z,11.30
2022-10-04T07:32:36.091Z,11.50
2022-10-04T07:35:26.436Z,11.60
2022-10-04T07:38:16.433Z,11.70
2022-10-04T07:41:12.822Z,11.90
2022-10-04T07:44:17.499Z,12.00
2022-10-04T07:47:05.584Z,12.20
2022-10-04T07:49:39.335Z,12.30
2022-10-04T07:52:38.242Z,12.50
2022-10-04T07:55:33.063Z,12.70
2022-10-04T07:58:23.733Z,12.90
2022-10-04T08:01:01.801Z,13.20
2022-10-04T08:03:45.401Z,13.50
2022-10-04T08:06:33.827Z,13.80
2022-10-04T08:09:12.938Z,14.20
2022-10-04T08:12:01.633Z,14.40
2022-10-04T08:14:34.166Z,14.60
2022-10-04T08:17:31.250Z,14.80
2022-10-04T08:20:16.831Z,15.40
2022-10-04T08:23:17.358Z,16.10
2022-10-04T08:25:51.892Z,17.00
2022-10-04T08:29:11.475Z,17.50
2022-10-04T08:32:05.581Z,18.20
2022-10-04T08:34:58.338Z,19.30
2022-10-04T08:37:53.679Z,19.60
2022-10-04T08:40:58.782Z,19.80
2022-10-04T08:43:40.114Z,19.80
2022-10-04T08:46:32.083Z,20.30
2022-10-04T08:49:16.437Z,21.30
2022-10-04T08:52:21.135Z,22.40
2022-10-04T08:55:21.256Z,23.80
2022-10-04T08:58:00.381Z,24.20
2022-10-04T09:00:32.999Z,23.90
2022-10-04T09:03:44.889Z,23.50
2022-10-04T09:06:30.070Z,23.20
2022-10-04T09:09:35.676Z,23.70
2022-10-04T09:12:32.437Z,24.80
2022-10-04T09:15:18.815Z,26.00
2022-10-04T09:18:22.807Z,26.60
2022-10-04T09:21:07.476Z,26.80
2022-10-04T09:24:04.870Z,26.70
2022-10-04T09:26:47.466Z,26.70
2022-10-04T09:29:26.752Z,27.20
2022-10-04T09:32:11.908Z,27.70
2022-10-04T09:35:03.936Z,28.40
2022-10-04T09:38:15.045Z,29.50
2022-10-04T09:40:53.433Z,30.50
2022-10-04T09:43:43.220Z,31.40
2022-10-04T09:46:16.498Z,31.60
2022-10-04T09:49:10.656Z,31.90
2022-10-04T09:52:02.785Z,32.10
2022-10-04T09:55:04.371Z,32.40
2022-10-04T09:58:14.258Z,32.70
2022-10-04T10:00:59.882Z,33.30
2022-10-04T10:03:56.973Z,33.50
2022-10-04T10:06:42.422Z,33.60
2022-10-04T10:09:15.021Z,33.50
2022-10-04T10:12:19.133Z,33.00
2022-10-04T10:14:55.429Z,32.80
2022-10-04T10:17:40.923Z,32.10
2022-10-04T10:20:16.588Z,32.20
2022-10-04T10:23:10.351Z,32.00
2022-10-04T10:25:59.091Z,31.40
2022-10-04T10:29:13.154Z,31.10
2022-10-04T10:31:56.582Z,30.00
2022-10-04T10:34:47.276Z,29.30
2022-10-04T10:37:41.831Z,28.60
2022-10-04T10:40:40.969Z,27.70
2022-10-04T10:43:36.756Z,26.70
2022-10-04T10:46:44.864Z,26.00
2022-10-04T10:49:27.272Z,25.90
2022-10-04T10:52:15.453Z,26.80
2022-10-04T10:54:57.923Z,27.50
2022-10-04T10:57:54.877Z,28.30
2022-10-04T11:00:25.610Z,29.00
2022-10-04T11:03:23.898Z,30.00
2022-10-04T11:06:35.550Z,31.20
2022-10-04T11:09:28.743Z,32.00
2022-10-04T11:12:17.275Z,33.20
2022-10-04T11:15:15.139Z,34.70
2022-10-04T11:17:47.262Z,35.60
2022-10-04T11:20:48.226Z,36.10
2022-10-04T11:23:29.603Z,36.00
2022-10-04T11:26:23.764Z,36.10
2022-10-04T11:29:29.432Z,36.40
2022-10-04T11:32:02.280Z,36.40
2022-10-04T11:34:44.142Z,36.30
2022-10-04T11:37:37.680Z,36.40
2022-10-04T11:40:17.926Z,36.20
2022-10-04T11:43:25.756Z,35.80
2022-10-04T11:46:17.202Z,35.60
2022-10-04T11:49:08.802Z,35.40
2022-10-04T11:52:06.285Z,35.00
2022-10-04T11:55:10.756Z,34.40
2022-10-04T11:58:09.728Z,33.10
2022-10-04T12:01:15.894Z,32.40
2022-10-04T12:04:04.320Z,31.40
2022-10-04T12:06:47.759Z,30.80
2022-10-04T12:09:20.196Z,29.70
2022-10-04T12:12:23.949Z,28.70
2022-10-04T12:15:11.517Z,28.40
2022-10-04T12:17:52.309Z,28.00
2022-10-04T12:20:54.460Z,27.70
2022-10-04T12:23:42.392Z,27.50
2022-10-04T12:26:40.150Z,27.10
2022-10-04T12:29:31.765Z,26.80
2022-10-04T12:32:11.033Z,26.50
2022-10-04T12:35:06.958Z,26.30
2022-10-04T12:38:02.327Z,26.10
2022-10-04T12:40:47.476Z,25.70
2022-10-04T12:43:14.746Z,25.60
2022-10-04T12:45:53.339Z,25.40
2022-10-04T12:48:40.749Z,25.40
2022-10-04T12:51:19.346Z,25.00
2022-10-04T12:54:39.257Z,25.00
2022-10-04T12:57:39.224Z,25.10
2022-10-04T13:00:20.445Z,25.10
2022-10-04T13:03:02.579Z,25.20
2022-10-04T13:05:47.452Z,25.20
2022-10-04T13:08:47.628Z,25.00
2022-10-04T13:11:49.971Z,24.90
2022-10-04T13:14:28.502Z,24.60
2022-10-04T13:17:29.951Z,24.30
2022-10-04T13:20:14.374Z,24.00
2022-10-04T13:22:57.735Z,23.60
2022-10-04T13:25:30.624Z,23.50
2022-10-04T13:28:34.290Z,23.50
2022-10-04T13:31:34.450Z,23.50
2022-10-04T13:34:25.710Z,23.70
2022-10-04T13:37:18.146Z,23.60
2022-10-04T13:40:06.136Z,23.40
2022-10-04T13:42:45.883Z,23.40
2022-10-04T13:45:31.993Z,23.50
2022-10-04T13:48:25.542Z,23.60
2022-10-04T13:51:03.648Z,23.60
2022-10-04T13:54:13.737Z,23.60
2022-10-04T13:57:04.886Z,23.50
2022-10-04T13:59:59.767Z,23.50
2022-10-04T14:02:51.974Z,23.10
2022-10-04T14:05:22.128Z,22.90
2022-10-04T14:08:10.148Z,22.80
2022-10-04T14:11:16.696Z,22.80
2022-10-04T14:14:28.874Z,22.50
2022-10-04T14:17:08.664Z,22.40
2022-10-04T14:19:47.194Z,22.50
2022-10-04T14:22:29.151Z,22.40
2022-10-04T14:25:43.881Z,22.20
2022-10-04T14:28:39.683Z,22.20
2022-10-04T14:31:36.014Z,22.10
2022-10-04T14:34:34.251Z,22.10
2022-10-04T14:37:11.502Z,21.90
2022-10-04T14:40:08.080Z,22.00
2022-10-04T14:42:52.123Z,22.00
2022-10-04T14:45:40.997Z,22.10
2022-10-04T14:48:45.012Z,22.00
2022-10-04T14:51:26.530Z,22.20
2022-10-04T14:54:25.483Z,22.10
2022-10-04T14:57:04.416Z,22.00
2022-10-04T14:59:31.119Z,22.00
2022-10-04T15:02:04.865Z,22.00
2022-10-04T15:05:00.424Z,22.00
2022-10-04T15:07:40.776Z,21.90
2022-10-04T15:10:38.299Z,21.90
2022-10-04T15:13:18.884Z,21.70
2022-10-04T15:15:58.743Z,21.60
2022-10-04T15:18:56.015Z,21.50
2022-10-04T15:21:59.796Z,21.40
2022-10-04T15:24:43.495Z,21.30
2022-10-04T15:27:35.496Z,21.20
2022-10-04T15:30:35.038Z,21.20
2022-10-04T15:33:19.105Z,21.20
2022-10-04T15:36:17.045Z,21.20
2022-10-04T15:38:57.130Z,21.20
2022-10-04T15:41:32.694Z,21.10
2022-10-04T15:44:11.686Z,21.10
2022-10-04T15:47:01.872Z,21.00
2022-10-04T15:49:52.653Z,20.90
2022-10-04T15:52:34.239Z,20.80
2022-10-04T15:55:18.902Z,20.80
2022-10-04T15:57:45.499Z,20.70
2022-10-04T16:00:28.581Z,20.70
2022-10-04T16:03:12.715Z,20.60
2022-10-04T16:06:04.484Z,20.50
2022-10-04T16:08:47.165Z,20.40
2022-10-04T16:11:44.358Z,20.30
2022-10-04T16:14:29.155Z,20.20
2022-10-04T16:17:32.542Z,20.10
2022-10-04T16:20:23.133Z,20.00
2022-10-04T16:23:24.203Z,19.90
2022-10-04T16:25:52.947Z,19.70
2022-10-04T16:28:44.776Z,19.50
2022-10-04T16:31:20.555Z,19.40
2022-10-04T16:34:08.166Z,19.30
2022-10-04T16:36:59.561Z,19.10
2022-10-04T16:39:53.908Z,18.90
2022-10-04T16:42:49.693Z,18.70
2022-10-04T16:45:49.782Z,18.50
2022-10-04T16:48:58.906Z,18.30
2022-10-04T16:51:54.750Z,18.10
2022-10-04T16:54:35.680Z,17.90
2022-10-04T16:57:22.907Z,17.70
2022-10-04T17:00:10.066Z,17.50
2022-10-04T17:03:06.508Z,17.40
2022-10-04T17:05:56.775Z,17.20
2022-10-04T17:08:29.848Z,17.10
2022-10-04T17:11:27.033Z,16.90
2022-10-04T17:13:56.922Z,16.80
2022-10-04T17:16:39.211Z,16.60
2022-10-04T17:19:29.042Z,16.50
2022-10-04T17:22:23.380Z,16.30
2022-10-04T17:25:17.584Z,16.20
2022-10-04T17:27:46.448Z,16.10
2022-10-04T17:30:28.390Z,16.00
2022-10-04T17:33:42.643Z,15.90
2022-10-04T17:36:18.962Z,15.60
2022-10-04T17:39:16.860Z,15.40
2022-10-04T17:42:07.808Z,15.30
2022-10-04T17:44:34.432Z,15.30
2022-10-04T17:47:08.686Z,15.20
2022-10-04T17:50:21.710Z,15.10
2022-10-04T17:53:13.198Z,14.90
2022-10-04T17:55:50.891Z,14.90
2022-10-04T17:58:38.205Z,14.80
2022-10-04T18:01:10.250Z,14.80
2022-10-04T18:04:07.056Z,14.80
2022-10-04T18:06:41.239Z,14.70
2022-10-04T18:09:39.648Z,14.60
2022-10-04T18:12:55.566Z,14.60
2022-10-04T18:15:28.634Z,14.50
2022-10-04T18:18:10.393Z,14.40
2022-10-04T18:20:56.045Z,14.40
2022-10-04T18:23:28.337Z,14.20
2022-10-04T18:25:59.664Z,14.10
2022-10-04T18:28:26.676Z,14.00
2022-10-04T18:31:00.168Z,13.90
2022-10-04T18:33:32.095Z,13.90
2022-10-04T18:36:19.198Z,13.80
2022-10-04T18:39:00.487Z,13.80
2022-10-04T18:41:47.579Z,13.70
2022-10-04T18:44:16.717Z,13.60
2022-10-04T18:46:48.039Z,13.60
2022-10-04T18:49:27.167Z,13.60
2022-10-04T18:52:13.220Z,13.60
2022-10-04T18:54:57.779Z,13.50
2022-10-04T18:58:19.359Z,13.50
2022-10-04T19:01:16.186Z,13.40
2022-10-04T19:03:59.205Z,13.30
2022-10-04T19:06:35.943Z,13.20
2022-10-04T19:09:31.628Z,13.10
2022-10-04T19:12:09.694Z,13.00
2022-10-04T19:14:43.668Z,12.90
2022-10-04T19:17:38.569Z,12.90
2022-10-04T19:20:20.975Z,12.80
2022-10-04T19:22:59.538Z,12.70
2022-10-04T19:25:34.869Z,12.70
2022-10-04T19:28:17.820Z,12.70
2022-10-04T19:31:00.876Z,12.60
2022-10-04T19:33:44.983Z,12.60
2022-10-04T19:36:39.289Z,12.60
2022-10-04T19:39:15.128Z,12.50
2022-10-04T19:42:09.447Z,12.50
2022-10-04T19:44:53.678Z,12.40
2022-10-04T19:47:33.972Z,12.30
2022-10-04T19:50:21.087Z,12.20
2022-10-04T19:53:18.447Z,12.20
2022-10-04T19:55:49.461Z,12.20
2022-10-04T19:58:36.619Z,12.20
2022-10-04T20:01:11.525Z,12.10
2022-10-04T20:03:39.057Z,12.00
2022-10-04T20:06:06.389Z,12.00
2022-10-04T20:08:48.180Z,12.00
2022-10-04T20:11:22.914Z,12.00
2022-10-04T20:14:08.444Z,12.00
2022-10-04T20:16:48.117Z,12.00
2022-10-04T20:19:27.585Z,12.00
2022-10-04T20:21:55.539Z,11.90
2022-10-04T20:24:37.189Z,11.80
2022-10-04T20:27:31.670Z,11.80
2022-10-04T20:30:04.324Z,11.80
2022-10-04T20:32:34.190Z,11.60
2022-10-04T20:35:04.212Z,11.60
2022-10-04T20:38:07.651Z,11.50
2022-10-04T20:40:39.094Z,11.40
2022-10-04T20:43:15.089Z,11.40
2022-10-04T20:45:48.611Z,11.40
2022-10-04T20:48:23.278Z,11.40
2022-10-04T20:50:50.830Z,11.30
2022-10-04T20:53:19.635Z,11.20
2022-10-04T20:55:47.030Z,11.20
2022-10-04T20:58:28.550Z,11.10
2022-10-04T21:01:35.728Z,11.00
2022-10-04T21:04:33.700Z,11.00
2022-10-04T21:07:05.992Z,11.00
2022-10-04T21:09:35.215Z,11.00
2022-10-04T21:12:03.730Z,11.00
2022-10-04T21:14:35.884Z,11.00
2022-10-04T21:17:04.291Z,10.90
2022-10-04T21:19:33.997Z,11.00
2022-10-04T21:22:02.476Z,11.00
2022-10-04T21:24:55.593Z,11.00
2022-10-04T21:27:32.690Z,10.90
2022-10-04T21:30:01.470Z,10.90
2022-10-04T21:32:33.822Z,10.90
2022-10-04T21:35:00.735Z,10.90
2022-10-04T21:37:27.364Z,10.90
2022-10-04T21:39:54.029Z,10.80
2022-10-04T21:42:20.863Z,10.80
2022-10-04T21:44:47.766Z,10.70
2022-10-04T21:47:14.592Z,10.70
2022-10-04T21:49:41.249Z,10.70
2022-10-04T21:52:07.960Z,10.70
2022-10-04T21:54:35.204Z,10.80
2022-10-04T21:57:01.861Z,10.70
2022-10-04T21:59:28.518Z,10.60
2022-10-04T22:01:55.247Z,10.50
2022-10-04T22:04:21.939Z,10.40
2022-10-04T22:06:49.048Z,10.30
2022-10-04T22:09:16.051Z,10.30
2022-10-04T22:11:42.682Z,10.30
2022-10-04T22:14:09.289Z,10.20
2022-10-04T22:16:36.014Z,10.20
2022-10-04T22:19:02.682Z,10.20
2022-10-04T22:21:29.421Z,10.20
2022-10-04T22:23:56.656Z,10.30
2022-10-04T22:26:25.736Z,10.30
2022-10-04T22:28:54.998Z,10.30
2022-10-04T22:31:26.121Z,10.30
2022-10-04T22:33:53.312Z,10.20
2022-10-04T22:36:22.938Z,10.20
2022-10-04T22:39:03.005Z,10.20
2022-10-04T22:41:32.921Z,10.20
2022-10-04T22:44:21.179Z,10.10
2022-10-04T22:46:51.606Z,10.10
2022-10-04T22:49:22.407Z,10.00
2022-10-04T22:51:51.665Z,10.00
2022-10-04T22:54:21.682Z,10.00
2022-10-04T22:56:49.551Z,10.00
2022-10-04T22:59:19.536Z,9.90
2022-10-04T23:01:46.544Z,9.80
2022-10-04T23:04:23.923Z,9.80
2022-10-04T23:06:51.740Z,9.70
2022-10-04T23:09:19.088Z,9.70
2022-10-04T23:11:46.121Z,9.60
2022-10-04T23:14:13.208Z,9.60
2022-10-04T23:16:39.882Z,9.60
2022-10-04T23:19:12.751Z,9.60
2022-10-04T23:21:42.629Z,9.60
2022-10-04T23:24:18.715Z,9.50
2022-10-04T23:26:48.403Z,9.50
2022-10-04T23:29:27.517Z,9.50
2022-10-04T23:31:55.189Z,9.50
2022-10-04T23:34:30.179Z,9.50
2022-10-04T23:36:57.645Z,9.40
2022-10-04T23:39:28.308Z,9.40
2022-10-04T23:41:56.520Z,9.40
2022-10-04T23:44:25.373Z,9.40
2022-10-04T23:46:52.334Z,9.30
2022-10-04T23:49:22.528Z,9.30
2022-10-04T23:51:52.713Z,9.30
2022-10-04T23:54:20.297Z,9.30
2022-10-04T23:56:47.829Z,9.20
2022-10-04T23:59:18.242Z,9.20
